sensor_id;sensor_type;location;lat;lon;timestamp;temperature;humidity
20771;DHT22;10545;36.536;23.064;2022-07-29T00:01:02;26.90;92.30
20771;DHT22;10545;36.536;23.064;2022-07-29T00:03:28;26.90;92.70
20771;DHT22;10545;36.536;23.064;2022-07-29T00:05:54;26.90;93.10
20771;DHT22;10545;36.536;23.064;2022-07-29T00:08:21;26.90;93.80
20771;DHT22;10545;36.536;23.064;2022-07-29T00:10:47;26.80;94.10
20771;DHT22;10545;36.536;23.064;2022-07-29T00:13:13;26.80;94.10
20771;DHT22;10545;36.536;23.064;2022-07-29T00:15:40;26.80;94.40
20771;DHT22;10545;36.536;23.064;2022-07-29T00:18:06;26.80;94.40
20771;DHT22;10545;36.536;23.064;2022-07-29T00:20:32;26.80;94.50
20771;DHT22;10545;36.536;23.064;2022-07-29T00:22:58;26.70;94.60
20771;DHT22;10545;36.536;23.064;2022-07-29T00:25:24;26.70;94.60
20771;DHT22;10545;36.536;23.064;2022-07-29T00:27:51;26.70;94.60
20771;DHT22;10545;36.536;23.064;2022-07-29T00:30:17;26.60;94.60
20771;DHT22;10545;36.536;23.064;2022-07-29T00:32:43;26.60;94.70
20771;DHT22;10545;36.536;23.064;2022-07-29T00:35:09;26.60;94.70
20771;DHT22;10545;36.536;23.064;2022-07-29T00:37:54;26.60;94.80
20771;DHT22;10545;36.536;23.064;2022-07-29T00:40:20;26.60;94.90
20771;DHT22;10545;36.536;23.064;2022-07-29T00:42:48;26.50;94.90
20771;DHT22;10545;36.536;23.064;2022-07-29T00:45:16;26.50;95.00
20771;DHT22;10545;36.536;23.064;2022-07-29T00:47:43;26.50;95.00
20771;DHT22;10545;36.536;23.064;2022-07-29T00:50:11;26.40;95.00
20771;DHT22;10545;36.536;23.064;2022-07-29T00:52:40;26.40;95.00
20771;DHT22;10545;36.536;23.064;2022-07-29T00:55:09;26.40;94.90
20771;DHT22;10545;36.536;23.064;2022-07-29T00:57:36;26.40;94.90
20771;DHT22;10545;36.536;23.064;2022-07-29T01:00:07;26.30;94.90
20771;DHT22;10545;36.536;23.064;2022-07-29T01:02:35;26.30;95.00
20771;DHT22;10545;36.536;23.064;2022-07-29T01:05:03;26.30;95.40
20771;DHT22;10545;36.536;23.064;2022-07-29T01:07:31;26.30;95.30
20771;DHT22;10545;36.536;23.064;2022-07-29T01:09:59;26.30;95.20
20771;DHT22;10545;36.536;23.064;2022-07-29T01:12:27;26.30;95.20
20771;DHT22;10545;36.536;23.064;2022-07-29T01:14:55;26.20;95.40
20771;DHT22;10545;36.536;23.064;2022-07-29T01:31:07;26.10;98.60
20771;DHT22;10545;36.536;23.064;2022-07-29T01:33:41;26.00;98.50
20771;DHT22;10545;36.536;23.064;2022-07-29T01:39:40;25.90;98.20
20771;DHT22;10545;36.536;23.064;2022-07-29T01:45:03;25.90;98.10
20771;DHT22;10545;36.536;23.064;2022-07-29T01:47:37;25.90;98.00
20771;DHT22;10545;36.536;23.064;2022-07-29T01:50:10;25.90;97.80
20771;DHT22;10545;36.536;23.064;2022-07-29T01:53:01;25.90;97.60
20771;DHT22;10545;36.536;23.064;2022-07-29T01:55:36;25.90;97.20
20771;DHT22;10545;36.536;23.064;2022-07-29T01:58:05;25.80;97.00
20771;DHT22;10545;36.536;23.064;2022-07-29T02:00:34;25.80;96.70
20771;DHT22;10545;36.536;23.064;2022-07-29T02:03:07;25.80;96.50
20771;DHT22;10545;36.536;23.064;2022-07-29T02:05:36;25.80;96.20
20771;DHT22;10545;36.536;23.064;2022-07-29T02:08:04;25.70;95.90
20771;DHT22;10545;36.536;23.064;2022-07-29T02:10:33;25.80;95.80
20771;DHT22;10545;36.536;23.064;2022-07-29T02:13:01;25.80;95.60
20771;DHT22;10545;36.536;23.064;2022-07-29T02:15:30;25.80;95.30
20771;DHT22;10545;36.536;23.064;2022-07-29T02:18:05;25.70;95.60
20771;DHT22;10545;36.536;23.064;2022-07-29T02:20:33;25.70;95.10
20771;DHT22;10545;36.536;23.064;2022-07-29T02:23:02;25.70;94.70
20771;DHT22;10545;36.536;23.064;2022-07-29T02:25:30;25.70;94.50
20771;DHT22;10545;36.536;23.064;2022-07-29T02:27:59;25.70;94.20
20771;DHT22;10545;36.536;23.064;2022-07-29T02:30:28;25.70;94.00
20771;DHT22;10545;36.536;23.064;2022-07-29T02:32:55;25.60;93.70
20771;DHT22;10545;36.536;23.064;2022-07-29T02:35:22;25.60;93.40
20771;DHT22;10545;36.536;23.064;2022-07-29T02:37:49;25.60;93.20
20771;DHT22;10545;36.536;23.064;2022-07-29T02:40:38;25.60;93.00
20771;DHT22;10545;36.536;23.064;2022-07-29T02:43:06;25.60;92.90
20771;DHT22;10545;36.536;23.064;2022-07-29T02:45:33;25.50;92.80
20771;DHT22;10545;36.536;23.064;2022-07-29T02:48:05;25.50;92.90
20771;DHT22;10545;36.536;23.064;2022-07-29T02:50:37;25.50;93.10
20771;DHT22;10545;36.536;23.064;2022-07-29T02:53:14;25.50;93.10
20771;DHT22;10545;36.536;23.064;2022-07-29T02:56:00;25.50;93.60
20771;DHT22;10545;36.536;23.064;2022-07-29T03:01:04;25.50;93.70
20771;DHT22;10545;36.536;23.064;2022-07-29T03:03:37;25.40;93.70
20771;DHT22;10545;36.536;23.064;2022-07-29T03:06:05;25.50;93.90
20771;DHT22;10545;36.536;23.064;2022-07-29T03:08:34;25.50;94.10
20771;DHT22;10545;36.536;23.064;2022-07-29T03:11:01;25.40;94.10
20771;DHT22;10545;36.536;23.064;2022-07-29T03:13:30;25.40;94.30
20771;DHT22;10545;36.536;23.064;2022-07-29T03:15:57;25.40;94.40
20771;DHT22;10545;36.536;23.064;2022-07-29T03:18:24;25.40;94.40
20771;DHT22;10545;36.536;23.064;2022-07-29T03:20:51;25.40;94.30
20771;DHT22;10545;36.536;23.064;2022-07-29T03:23:21;25.30;94.20
20771;DHT22;10545;36.536;23.064;2022-07-29T03:25:50;25.40;94.10
20771;DHT22;10545;36.536;23.064;2022-07-29T03:28:16;25.30;93.90
20771;DHT22;10545;36.536;23.064;2022-07-29T03:30:43;25.30;94.10
20771;DHT22;10545;36.536;23.064;2022-07-29T03:33:09;25.30;94.10
20771;DHT22;10545;36.536;23.064;2022-07-29T03:35:35;25.30;94.00
20771;DHT22;10545;36.536;23.064;2022-07-29T03:38:01;25.30;93.80
20771;DHT22;10545;36.536;23.064;2022-07-29T03:40:38;25.30;93.80
20771;DHT22;10545;36.536;23.064;2022-07-29T03:43:07;25.30;93.70
20771;DHT22;10545;36.536;23.064;2022-07-29T03:45:34;25.30;93.90
20771;DHT22;10545;36.536;23.064;2022-07-29T03:48:10;25.30;94.20
20771;DHT22;10545;36.536;23.064;2022-07-29T03:50:38;25.30;94.50
20771;DHT22;10545;36.536;23.064;2022-07-29T03:53:05;25.30;94.80
20771;DHT22;10545;36.536;23.064;2022-07-29T03:55:36;25.30;95.00
20771;DHT22;10545;36.536;23.064;2022-07-29T03:58:03;25.30;95.20
20771;DHT22;10545;36.536;23.064;2022-07-29T04:00:31;25.30;95.20
20771;DHT22;10545;36.536;23.064;2022-07-29T04:02:57;25.30;95.10
20771;DHT22;10545;36.536;23.064;2022-07-29T04:05:23;25.20;95.10
20771;DHT22;10545;36.536;23.064;2022-07-29T04:07:49;25.20;95.30
20771;DHT22;10545;36.536;23.064;2022-07-29T04:10:16;25.30;95.30
20771;DHT22;10545;36.536;23.064;2022-07-29T04:12:43;25.30;95.30
20771;DHT22;10545;36.536;23.064;2022-07-29T04:15:10;25.20;95.30
20771;DHT22;10545;36.536;23.064;2022-07-29T04:17:36;25.20;95.40
20771;DHT22;10545;36.536;23.064;2022-07-29T04:20:04;25.20;95.30
20771;DHT22;10545;36.536;23.064;2022-07-29T04:22:30;25.30;95.30
20771;DHT22;10545;36.536;23.064;2022-07-29T04:24:57;25.30;95.30
20771;DHT22;10545;36.536;23.064;2022-07-29T04:27:23;25.20;95.10
20771;DHT22;10545;36.536;23.064;2022-07-29T04:29:49;25.30;95.10
20771;DHT22;10545;36.536;23.064;2022-07-29T04:32:15;25.30;95.10
20771;DHT22;10545;36.536;23.064;2022-07-29T04:34:41;25.30;94.90
20771;DHT22;10545;36.536;23.064;2022-07-29T04:37:08;25.30;94.80
20771;DHT22;10545;36.536;23.064;2022-07-29T04:39:34;25.30;94.80
20771;DHT22;10545;36.536;23.064;2022-07-29T04:42:00;25.30;94.90
20771;DHT22;10545;36.536;23.064;2022-07-29T04:44:26;25.30;94.30
20771;DHT22;10545;36.536;23.064;2022-07-29T04:46:54;25.30;94.00
20771;DHT22;10545;36.536;23.064;2022-07-29T04:49:20;25.30;93.80
20771;DHT22;10545;36.536;23.064;2022-07-29T04:51:46;25.30;93.40
20771;DHT22;10545;36.536;23.064;2022-07-29T04:54:15;25.30;93.30
20771;DHT22;10545;36.536;23.064;2022-07-29T04:56:42;25.30;93.00
20771;DHT22;10545;36.536;23.064;2022-07-29T04:59:08;25.30;92.80
20771;DHT22;10545;36.536;23.064;2022-07-29T05:01:34;25.30;92.70
20771;DHT22;10545;36.536;23.064;2022-07-29T05:04:00;25.30;92.50
20771;DHT22;10545;36.536;23.064;2022-07-29T05:09:28;25.50;92.20
20771;DHT22;10545;36.536;23.064;2022-07-29T05:11:54;25.70;91.40
20771;DHT22;10545;36.536;23.064;2022-07-29T05:14:20;25.90;91.20
20771;DHT22;10545;36.536;23.064;2022-07-29T05:16:46;26.10;91.30
20771;DHT22;10545;36.536;23.064;2022-07-29T05:19:14;26.30;91.10
20771;DHT22;10545;36.536;23.064;2022-07-29T05:21:40;26.50;91.00
20771;DHT22;10545;36.536;23.064;2022-07-29T05:24:07;26.60;90.70
20771;DHT22;10545;36.536;23.064;2022-07-29T05:26:33;26.80;91.20
20771;DHT22;10545;36.536;23.064;2022-07-29T05:29:00;26.90;91.60
20771;DHT22;10545;36.536;23.064;2022-07-29T07:15:36;31.20;85.90
20771;DHT22;10545;36.536;23.064;2022-07-29T07:18:03;31.00;86.80
20771;DHT22;10545;36.536;23.064;2022-07-29T07:20:30;31.00;86.40
20771;DHT22;10545;36.536;23.064;2022-07-29T07:22:56;31.10;87.10
20771;DHT22;10545;36.536;23.064;2022-07-29T07:25:22;31.10;85.70
20771;DHT22;10545;36.536;23.064;2022-07-29T07:27:48;31.10;86.10
20771;DHT22;10545;36.536;23.064;2022-07-29T07:30:14;31.20;85.50
20771;DHT22;10545;36.536;23.064;2022-07-29T07:32:41;31.30;85.30
20771;DHT22;10545;36.536;23.064;2022-07-29T07:35:08;31.40;85.60
20771;DHT22;10545;36.536;23.064;2022-07-29T07:37:35;31.50;82.40
20771;DHT22;10545;36.536;23.064;2022-07-29T07:40:02;31.60;83.50
20771;DHT22;10545;36.536;23.064;2022-07-29T07:42:29;31.70;84.50
20771;DHT22;10545;36.536;23.064;2022-07-29T07:44:55;31.80;84.30
20771;DHT22;10545;36.536;23.064;2022-07-29T07:47:21;32.00;84.40
20771;DHT22;10545;36.536;23.064;2022-07-29T07:49:53;32.10;83.50
20771;DHT22;10545;36.536;23.064;2022-07-29T07:52:21;32.20;83.40
20771;DHT22;10545;36.536;23.064;2022-07-29T07:54:48;32.20;83.50
20771;DHT22;10545;36.536;23.064;2022-07-29T07:57:15;32.20;82.40
20771;DHT22;10545;36.536;23.064;2022-07-29T07:59:42;32.30;82.60
20771;DHT22;10545;36.536;23.064;2022-07-29T08:02:08;32.30;82.00
20771;DHT22;10545;36.536;23.064;2022-07-29T08:04:35;32.30;81.50
20771;DHT22;10545;36.536;23.064;2022-07-29T08:07:01;32.40;82.00
20771;DHT22;10545;36.536;23.064;2022-07-29T08:09:28;32.40;82.30
20771;DHT22;10545;36.536;23.064;2022-07-29T08:11:55;32.40;80.50
20771;DHT22;10545;36.536;23.064;2022-07-29T08:14:22;32.50;81.50
20771;DHT22;10545;36.536;23.064;2022-07-29T08:16:48;32.50;79.80
20771;DHT22;10545;36.536;23.064;2022-07-29T08:19:15;32.50;80.90
20771;DHT22;10545;36.536;23.064;2022-07-29T08:21:41;32.50;80.10
20771;DHT22;10545;36.536;23.064;2022-07-29T08:24:07;32.60;79.50
20771;DHT22;10545;36.536;23.064;2022-07-29T08:26:52;32.60;79.80
20771;DHT22;10545;36.536;23.064;2022-07-29T08:29:18;32.50;80.90
20771;DHT22;10545;36.536;23.064;2022-07-29T08:31:45;32.50;80.90
20771;DHT22;10545;36.536;23.064;2022-07-29T08:34:11;32.50;81.20
20771;DHT22;10545;36.536;23.064;2022-07-29T08:36:37;32.60;79.50
20771;DHT22;10545;36.536;23.064;2022-07-29T08:39:04;32.60;77.60
20771;DHT22;10545;36.536;23.064;2022-07-29T08:41:30;32.70;78.00
20771;DHT22;10545;36.536;23.064;2022-07-29T08:43:57;32.70;79.50
20771;DHT22;10545;36.536;23.064;2022-07-29T08:46:23;32.70;79.20
20771;DHT22;10545;36.536;23.064;2022-07-29T08:48:49;32.80;79.50
20771;DHT22;10545;36.536;23.064;2022-07-29T08:51:18;32.80;79.50
20771;DHT22;10545;36.536;23.064;2022-07-29T08:53:47;32.80;79.40
20771;DHT22;10545;36.536;23.064;2022-07-29T08:56:15;32.90;78.50
20771;DHT22;10545;36.536;23.064;2022-07-29T08:58:46;32.90;79.40
20771;DHT22;10545;36.536;23.064;2022-07-29T09:01:20;32.90;79.90
20771;DHT22;10545;36.536;23.064;2022-07-29T09:03:50;32.70;81.00
20771;DHT22;10545;36.536;23.064;2022-07-29T09:06:32;32.80;77.00
20771;DHT22;10545;36.536;23.064;2022-07-29T09:09:00;32.90;79.20
20771;DHT22;10545;36.536;23.064;2022-07-29T09:11:27;32.90;80.40
20771;DHT22;10545;36.536;23.064;2022-07-29T09:13:54;32.90;79.60
20771;DHT22;10545;36.536;23.064;2022-07-29T09:16:20;32.90;79.00
20771;DHT22;10545;36.536;23.064;2022-07-29T09:18:47;32.90;80.00
20771;DHT22;10545;36.536;23.064;2022-07-29T09:21:16;33.00;80.40
20771;DHT22;10545;36.536;23.064;2022-07-29T09:26:52;33.10;76.90
20771;DHT22;10545;36.536;23.064;2022-07-29T09:29:20;33.10;77.80
20771;DHT22;10545;36.536;23.064;2022-07-29T09:31:49;33.20;77.90
20771;DHT22;10545;36.536;23.064;2022-07-29T09:34:24;33.40;78.00
20771;DHT22;10545;36.536;23.064;2022-07-29T09:36:52;33.40;79.10
20771;DHT22;10545;36.536;23.064;2022-07-29T09:39:54;33.40;78.60
20771;DHT22;10545;36.536;23.064;2022-07-29T09:42:30;33.50;77.60
20771;DHT22;10545;36.536;23.064;2022-07-29T09:44:58;33.60;78.80
20771;DHT22;10545;36.536;23.064;2022-07-29T09:47:46;33.60;78.70
20771;DHT22;10545;36.536;23.064;2022-07-29T09:50:15;33.70;77.20
20771;DHT22;10545;36.536;23.064;2022-07-29T09:52:49;33.80;78.10
20771;DHT22;10545;36.536;23.064;2022-07-29T09:55:16;33.90;78.10
20771;DHT22;10545;36.536;23.064;2022-07-29T09:57:45;34.00;78.00
20771;DHT22;10545;36.536;23.064;2022-07-29T10:00:18;34.00;77.50
20771;DHT22;10545;36.536;23.064;2022-07-29T10:02:46;34.00;77.10
20771;DHT22;10545;36.536;23.064;2022-07-29T10:05:24;33.80;77.30
20771;DHT22;10545;36.536;23.064;2022-07-29T10:07:56;33.80;77.00
20771;DHT22;10545;36.536;23.064;2022-07-29T10:10:28;33.70;77.50
20771;DHT22;10545;36.536;23.064;2022-07-29T10:12:56;33.70;77.90
20771;DHT22;10545;36.536;23.064;2022-07-29T10:15:25;33.60;78.20
20771;DHT22;10545;36.536;23.064;2022-07-29T10:17:52;33.50;77.80
20771;DHT22;10545;36.536;23.064;2022-07-29T10:20:23;33.40;77.00
20771;DHT22;10545;36.536;23.064;2022-07-29T10:22:51;33.40;77.70
20771;DHT22;10545;36.536;23.064;2022-07-29T10:25:18;33.40;78.20
20771;DHT22;10545;36.536;23.064;2022-07-29T10:27:46;33.50;78.60
20771;DHT22;10545;36.536;23.064;2022-07-29T10:30:14;33.50;78.60
20771;DHT22;10545;36.536;23.064;2022-07-29T10:33:07;33.60;77.70
20771;DHT22;10545;36.536;23.064;2022-07-29T10:35:51;33.60;76.80
20771;DHT22;10545;36.536;23.064;2022-07-29T10:43:58;33.80;76.00
20771;DHT22;10545;36.536;23.064;2022-07-29T10:46:26;33.90;75.40
20771;DHT22;10545;36.536;23.064;2022-07-29T10:49:14;33.80;74.70
20771;DHT22;10545;36.536;23.064;2022-07-29T10:51:57;33.70;75.20
20771;DHT22;10545;36.536;23.064;2022-07-29T10:54:47;33.70;74.30
20771;DHT22;10545;36.536;23.064;2022-07-29T10:57:22;33.70;75.20
20771;DHT22;10545;36.536;23.064;2022-07-29T11:02:41;34.00;75.00
20771;DHT22;10545;36.536;23.064;2022-07-29T11:05:14;34.20;74.50
20771;DHT22;10545;36.536;23.064;2022-07-29T11:08:18;34.40;73.60
20771;DHT22;10545;36.536;23.064;2022-07-29T11:10:50;34.50;84.50
20771;DHT22;10545;36.536;23.064;2022-07-29T11:16:18;34.00;87.50
20771;DHT22;10545;36.536;23.064;2022-07-29T11:21:43;33.80;88.90
20771;DHT22;10545;36.536;23.064;2022-07-29T11:24:21;33.80;88.00
20771;DHT22;10545;36.536;23.064;2022-07-29T11:29:57;33.20;88.30
20771;DHT22;10545;36.536;23.064;2022-07-29T11:32:37;33.00;90.20
20771;DHT22;10545;36.536;23.064;2022-07-29T11:37:41;32.50;90.50
20771;DHT22;10545;36.536;23.064;2022-07-29T11:40:08;32.20;90.60
20771;DHT22;10545;36.536;23.064;2022-07-29T11:45:08;32.00;91.10
20771;DHT22;10545;36.536;23.064;2022-07-29T11:47:58;32.20;91.30
20771;DHT22;10545;36.536;23.064;2022-07-29T11:50:33;32.20;91.40
20771;DHT22;10545;36.536;23.064;2022-07-29T11:53:01;32.30;91.50
20771;DHT22;10545;36.536;23.064;2022-07-29T11:55:29;32.20;91.10
20771;DHT22;10545;36.536;23.064;2022-07-29T11:58:00;32.20;91.10
20771;DHT22;10545;36.536;23.064;2022-07-29T12:00:32;32.20;91.00
20771;DHT22;10545;36.536;23.064;2022-07-29T12:03:01;32.20;90.70
20771;DHT22;10545;36.536;23.064;2022-07-29T12:08:09;32.40;90.50
20771;DHT22;10545;36.536;23.064;2022-07-29T12:10:37;32.40;90.10
20771;DHT22;10545;36.536;23.064;2022-07-29T12:13:05;32.30;90.40
20771;DHT22;10545;36.536;23.064;2022-07-29T12:15:32;32.30;90.50
20771;DHT22;10545;36.536;23.064;2022-07-29T12:17:59;32.40;90.10
20771;DHT22;10545;36.536;23.064;2022-07-29T12:20:36;32.40;90.00
20771;DHT22;10545;36.536;23.064;2022-07-29T12:23:08;32.50;90.20
20771;DHT22;10545;36.536;23.064;2022-07-29T12:25:35;32.50;90.10
20771;DHT22;10545;36.536;23.064;2022-07-29T12:28:10;32.60;90.20
20771;DHT22;10545;36.536;23.064;2022-07-29T12:30:43;32.70;90.00
20771;DHT22;10545;36.536;23.064;2022-07-29T12:33:16;32.70;90.10
20771;DHT22;10545;36.536;23.064;2022-07-29T12:35:46;32.80;90.20
20771;DHT22;10545;36.536;23.064;2022-07-29T12:38:13;32.60;89.80
20771;DHT22;10545;36.536;23.064;2022-07-29T12:40:40;32.60;90.00
20771;DHT22;10545;36.536;23.064;2022-07-29T12:43:09;32.60;90.00
20771;DHT22;10545;36.536;23.064;2022-07-29T12:45:38;32.70;90.10
20771;DHT22;10545;36.536;23.064;2022-07-29T12:48:05;32.60;90.00
20771;DHT22;10545;36.536;23.064;2022-07-29T12:50:35;32.60;90.30
20771;DHT22;10545;36.536;23.064;2022-07-29T12:53:12;32.50;91.10
20771;DHT22;10545;36.536;23.064;2022-07-29T12:55:44;32.30;91.60
20771;DHT22;10545;36.536;23.064;2022-07-29T12:58:26;32.20;91.80
20771;DHT22;10545;36.536;23.064;2022-07-29T13:01:07;32.20;91.10
20771;DHT22;10545;36.536;23.064;2022-07-29T13:03:55;32.20;92.10
20771;DHT22;10545;36.536;23.064;2022-07-29T13:06:45;32.10;91.90
20771;DHT22;10545;36.536;23.064;2022-07-29T13:09:12;32.10;91.70
20771;DHT22;10545;36.536;23.064;2022-07-29T13:11:47;32.10;92.40
20771;DHT22;10545;36.536;23.064;2022-07-29T13:14:33;32.20;91.60
20771;DHT22;10545;36.536;23.064;2022-07-29T13:19:44;31.80;93.80
20771;DHT22;10545;36.536;23.064;2022-07-29T13:22:16;31.70;94.30
20771;DHT22;10545;36.536;23.064;2022-07-29T13:24:54;31.70;93.90
20771;DHT22;10545;36.536;23.064;2022-07-29T13:27:23;31.80;94.00
20771;DHT22;10545;36.536;23.064;2022-07-29T13:29:50;31.70;94.20
20771;DHT22;10545;36.536;23.064;2022-07-29T13:32:19;31.70;93.80
20771;DHT22;10545;36.536;23.064;2022-07-29T13:34:45;31.80;94.20
20771;DHT22;10545;36.536;23.064;2022-07-29T13:37:11;31.70;94.10
20771;DHT22;10545;36.536;23.064;2022-07-29T13:39:37;31.70;93.80
20771;DHT22;10545;36.536;23.064;2022-07-29T13:42:05;31.50;93.20
20771;DHT22;10545;36.536;23.064;2022-07-29T13:44:32;31.50;94.20
20771;DHT22;10545;36.536;23.064;2022-07-29T13:46:58;31.50;94.30
20771;DHT22;10545;36.536;23.064;2022-07-29T13:49:25;31.30;95.40
20771;DHT22;10545;36.536;23.064;2022-07-29T13:51:52;31.30;95.10
20771;DHT22;10545;36.536;23.064;2022-07-29T13:54:18;31.40;94.80
20771;DHT22;10545;36.536;23.064;2022-07-29T13:56:45;31.30;94.50
20771;DHT22;10545;36.536;23.064;2022-07-29T13:59:12;31.30;94.50
20771;DHT22;10545;36.536;23.064;2022-07-29T14:01:39;31.50;94.50
20771;DHT22;10545;36.536;23.064;2022-07-29T14:04:09;31.50;94.80
20771;DHT22;10545;36.536;23.064;2022-07-29T14:06:36;31.60;94.90
20771;DHT22;10545;36.536;23.064;2022-07-29T14:09:04;31.70;94.80
20771;DHT22;10545;36.536;23.064;2022-07-29T14:11:40;31.90;94.60
20771;DHT22;10545;36.536;23.064;2022-07-29T14:14:06;32.10;94.00
20771;DHT22;10545;36.536;23.064;2022-07-29T14:16:33;32.10;94.80
20771;DHT22;10545;36.536;23.064;2022-07-29T14:19:00;32.10;94.60
20771;DHT22;10545;36.536;23.064;2022-07-29T14:21:26;32.00;94.60
20771;DHT22;10545;36.536;23.064;2022-07-29T14:23:52;32.00;94.90
20771;DHT22;10545;36.536;23.064;2022-07-29T14:26:21;32.10;95.30
20771;DHT22;10545;36.536;23.064;2022-07-29T14:28:48;32.30;95.00
20771;DHT22;10545;36.536;23.064;2022-07-29T14:31:15;32.20;94.80
20771;DHT22;10545;36.536;23.064;2022-07-29T14:33:41;32.10;95.60
20771;DHT22;10545;36.536;23.064;2022-07-29T14:36:08;31.70;95.40
20771;DHT22;10545;36.536;23.064;2022-07-29T14:38:38;31.50;96.60
20771;DHT22;10545;36.536;23.064;2022-07-29T14:41:06;31.50;97.00
20771;DHT22;10545;36.536;23.064;2022-07-29T14:43:33;31.40;96.60
20771;DHT22;10545;36.536;23.064;2022-07-29T14:46:01;31.30;95.60
20771;DHT22;10545;36.536;23.064;2022-07-29T14:48:27;31.10;95.90
20771;DHT22;10545;36.536;23.064;2022-07-29T14:50:53;31.10;96.10
20771;DHT22;10545;36.536;23.064;2022-07-29T14:53:22;30.90;96.70
20771;DHT22;10545;36.536;23.064;2022-07-29T14:55:48;30.80;96.10
20771;DHT22;10545;36.536;23.064;2022-07-29T14:58:15;30.70;96.70
20771;DHT22;10545;36.536;23.064;2022-07-29T15:00:41;30.70;97.40
20771;DHT22;10545;36.536;23.064;2022-07-29T15:03:07;30.80;96.90
20771;DHT22;10545;36.536;23.064;2022-07-29T15:05:36;30.90;97.20
20771;DHT22;10545;36.536;23.064;2022-07-29T15:08:03;31.00;97.50
20771;DHT22;10545;36.536;23.064;2022-07-29T15:10:29;31.00;97.50
20771;DHT22;10545;36.536;23.064;2022-07-29T15:12:56;31.00;97.70
20771;DHT22;10545;36.536;23.064;2022-07-29T15:15:22;31.00;97.60
20771;DHT22;10545;36.536;23.064;2022-07-29T15:17:48;30.90;97.90
20771;DHT22;10545;36.536;23.064;2022-07-29T15:20:14;30.80;97.90
20771;DHT22;10545;36.536;23.064;2022-07-29T15:22:40;30.90;97.80
20771;DHT22;10545;36.536;23.064;2022-07-29T15:25:08;30.70;97.90
20771;DHT22;10545;36.536;23.064;2022-07-29T15:27:35;30.70;97.90
20771;DHT22;10545;36.536;23.064;2022-07-29T15:30:01;30.90;97.80
20771;DHT22;10545;36.536;23.064;2022-07-29T15:32:27;30.90;97.70
20771;DHT22;10545;36.536;23.064;2022-07-29T15:34:53;30.80;97.60
20771;DHT22;10545;36.536;23.064;2022-07-29T15:37:19;30.80;97.70
20771;DHT22;10545;36.536;23.064;2022-07-29T15:39:46;30.70;97.90
20771;DHT22;10545;36.536;23.064;2022-07-29T15:42:12;30.70;98.10
20771;DHT22;10545;36.536;23.064;2022-07-29T15:44:38;30.70;98.40
20771;DHT22;10545;36.536;23.064;2022-07-29T15:47:04;30.70;98.70
20771;DHT22;10545;36.536;23.064;2022-07-29T15:49:39;30.60;99.50
20771;DHT22;10545;36.536;23.064;2022-07-29T15:52:09;30.50;99.90
20771;DHT22;10545;36.536;23.064;2022-07-29T15:54:37;30.20;99.90
20771;DHT22;10545;36.536;23.064;2022-07-29T15:57:06;30.10;99.90
20771;DHT22;10545;36.536;23.064;2022-07-29T15:59:33;30.00;99.90
20771;DHT22;10545;36.536;23.064;2022-07-29T16:02:00;30.10;99.90
20771;DHT22;10545;36.536;23.064;2022-07-29T16:04:26;30.10;99.90
20771;DHT22;10545;36.536;23.064;2022-07-29T16:06:53;30.10;99.90
20771;DHT22;10545;36.536;23.064;2022-07-29T16:09:19;30.00;99.90
20771;DHT22;10545;36.536;23.064;2022-07-29T16:11:45;30.10;99.90
20771;DHT22;10545;36.536;23.064;2022-07-29T16:14:14;30.10;99.90
20771;DHT22;10545;36.536;23.064;2022-07-29T16:16:40;30.00;99.90
20771;DHT22;10545;36.536;23.064;2022-07-29T16:19:06;30.00;99.90
20771;DHT22;10545;36.536;23.064;2022-07-29T16:21:35;29.80;99.90
20771;DHT22;10545;36.536;23.064;2022-07-29T16:24:02;29.70;99.90
20771;DHT22;10545;36.536;23.064;2022-07-29T16:26:29;29.70;99.90
20771;DHT22;10545;36.536;23.064;2022-07-29T16:28:55;29.60;99.90
20771;DHT22;10545;36.536;23.064;2022-07-29T16:31:21;29.50;99.90
20771;DHT22;10545;36.536;23.064;2022-07-29T16:33:49;29.60;99.90
20771;DHT22;10545;36.536;23.064;2022-07-29T16:36:16;29.60;99.90
20771;DHT22;10545;36.536;23.064;2022-07-29T16:38:43;29.60;99.90
20771;DHT22;10545;36.536;23.064;2022-07-29T16:41:09;29.70;99.90
20771;DHT22;10545;36.536;23.064;2022-07-29T16:43:36;29.80;99.90
20771;DHT22;10545;36.536;23.064;2022-07-29T16:46:02;29.90;99.90
20771;DHT22;10545;36.536;23.064;2022-07-29T16:48:28;30.10;99.90
20771;DHT22;10545;36.536;23.064;2022-07-29T16:50:55;30.00;99.90
20771;DHT22;10545;36.536;23.064;2022-07-29T16:53:21;29.90;99.90
20771;DHT22;10545;36.536;23.064;2022-07-29T16:55:47;29.80;99.90
20771;DHT22;10545;36.536;23.064;2022-07-29T16:58:14;29.70;99.90
20771;DHT22;10545;36.536;23.064;2022-07-29T17:00:40;29.50;99.90
20771;DHT22;10545;36.536;23.064;2022-07-29T17:03:07;29.40;99.90
20771;DHT22;10545;36.536;23.064;2022-07-29T17:05:33;29.30;99.90
20771;DHT22;10545;36.536;23.064;2022-07-29T17:07:59;29.30;99.90
20771;DHT22;10545;36.536;23.064;2022-07-29T17:10:26;29.10;99.90
20771;DHT22;10545;36.536;23.064;2022-07-29T17:12:53;29.00;99.90
20771;DHT22;10545;36.536;23.064;2022-07-29T17:15:19;28.90;99.90
20771;DHT22;10545;36.536;23.064;2022-07-29T17:17:45;28.80;99.90
20771;DHT22;10545;36.536;23.064;2022-07-29T17:20:12;28.70;99.90
20771;DHT22;10545;36.536;23.064;2022-07-29T17:22:39;28.80;99.90
20771;DHT22;10545;36.536;23.064;2022-07-29T17:25:07;28.80;99.90
20771;DHT22;10545;36.536;23.064;2022-07-29T17:27:35;29.00;99.90
20771;DHT22;10545;36.536;23.064;2022-07-29T17:30:01;29.10;99.90
20771;DHT22;10545;36.536;23.064;2022-07-29T17:32:27;29.10;99.90
20771;DHT22;10545;36.536;23.064;2022-07-29T17:34:53;29.10;99.90
20771;DHT22;10545;36.536;23.064;2022-07-29T17:37:19;29.10;99.90
20771;DHT22;10545;36.536;23.064;2022-07-29T17:39:46;29.00;99.90
20771;DHT22;10545;36.536;23.064;2022-07-29T17:42:13;29.00;99.90
20771;DHT22;10545;36.536;23.064;2022-07-29T17:44:40;29.00;99.90
20771;DHT22;10545;36.536;23.064;2022-07-29T17:47:07;29.10;99.90
20771;DHT22;10545;36.536;23.064;2022-07-29T17:49:33;29.00;99.90
20771;DHT22;10545;36.536;23.064;2022-07-29T17:52:00;29.10;99.90
20771;DHT22;10545;36.536;23.064;2022-07-29T17:54:26;29.20;99.90
20771;DHT22;10545;36.536;23.064;2022-07-29T17:56:52;29.20;99.90
20771;DHT22;10545;36.536;23.064;2022-07-29T17:59:18;29.20;99.90
20771;DHT22;10545;36.536;23.064;2022-07-29T18:01:45;29.20;99.90
20771;DHT22;10545;36.536;23.064;2022-07-29T18:04:11;29.20;99.90
20771;DHT22;10545;36.536;23.064;2022-07-29T18:06:40;29.30;99.90